createdAt,value
2017-11-15T00:00:20.285Z,7.70
2017-11-15T00:02:48.571Z,7.70
2017-11-15T00:05:16.868Z,7.80
2017-11-15T00:07:45.137Z,7.70
2017-11-15T00:10:13.417Z,7.70
2017-11-15T00:12:42.473Z,7.70
2017-11-15T00:15:12.535Z,7.70
2017-11-15T00:17:40.796Z,7.80
2017-11-15T00:20:09.059Z,7.80
2017-11-15T00:22:37.346Z,7.80
2017-11-15T00:25:05.759Z,7.90
2017-11-15T00:27:34.040Z,7.90
2017-11-15T00:30:02.301Z,7.90
2017-11-15T00:32:30.586Z,8.00
2017-11-15T00:34:58.839Z,7.90
2017-11-15T00:37:27.117Z,8.00
2017-11-15T00:39:55.385Z,7.90
2017-11-15T00:42:23.657Z,7.90
2017-11-15T00:44:51.949Z,8.00
2017-11-15T00:47:20.253Z,8.00
2017-11-15T00:49:49.285Z,8.00
2017-11-15T00:52:18.441Z,7.90
2017-11-15T00:54:46.688Z,7.90
2017-11-15T00:57:14.984Z,7.80
2017-11-15T00:59:43.270Z,8.00
2017-11-15T01:02:11.552Z,8.10
2017-11-15T01:04:39.825Z,8.00
2017-11-15T01:07:08.105Z,8.00
2017-11-15T01:09:36.378Z,8.00
2017-11-15T01:12:04.650Z,7.90
2017-11-15T01:14:32.905Z,7.80
2017-11-15T01:17:01.210Z,8.00
2017-11-15T01:19:29.465Z,8.00
2017-11-15T01:21:57.773Z,8.10
2017-11-15T01:24:26.868Z,8.00
2017-11-15T01:26:56.660Z,8.00
2017-11-15T01:29:24.941Z,8.00
2017-11-15T01:31:53.217Z,8.00
2017-11-15T01:34:21.504Z,8.10
2017-11-15T01:36:49.830Z,8.20
2017-11-15T01:39:18.160Z,8.20
2017-11-15T01:41:46.428Z,8.20
2017-11-15T01:44:14.686Z,8.30
2017-11-15T01:46:42.993Z,8.30
2017-11-15T01:49:11.249Z,8.40
2017-11-15T01:51:39.593Z,8.40
2017-11-15T01:54:07.888Z,8.50
2017-11-15T01:56:36.165Z,8.60
2017-11-15T01:59:04.505Z,8.50
2017-11-15T02:01:37.563Z,8.50
2017-11-15T02:04:05.937Z,8.50
2017-11-15T02:06:34.193Z,8.50
2017-11-15T02:09:02.543Z,8.60
2017-11-15T02:11:31.569Z,8.50
2017-11-15T02:13:59.847Z,8.50
2017-11-15T02:16:28.097Z,8.40
2017-11-15T02:18:56.389Z,8.40
2017-11-15T02:21:24.642Z,8.40
2017-11-15T02:23:53.694Z,8.30
2017-11-15T02:26:21.961Z,8.30
2017-11-15T02:28:50.359Z,8.30
2017-11-15T02:31:18.731Z,8.20
2017-11-15T02:33:47.012Z,8.30
2017-11-15T02:36:15.267Z,8.30
2017-11-15T02:38:43.537Z,8.40
2017-11-15T02:41:11.836Z,8.40
2017-11-15T02:43:40.120Z,8.30
2017-11-15T02:46:09.890Z,8.20
2017-11-15T02:48:38.169Z,8.20
2017-11-15T02:51:06.422Z,8.10
2017-11-15T02:53:35.584Z,8.00
2017-11-15T02:56:03.837Z,8.00
2017-11-15T02:58:32.104Z,8.00
2017-11-15T03:01:00.371Z,8.00
2017-11-15T03:03:28.648Z,8.00
2017-11-15T03:05:56.911Z,8.10
2017-11-15T03:08:25.996Z,8.30
2017-11-15T03:10:54.343Z,8.20
2017-11-15T03:13:22.615Z,8.30
2017-11-15T03:15:50.887Z,8.20
2017-11-15T03:18:19.160Z,8.20
2017-11-15T03:20:47.427Z,8.10
2017-11-15T03:23:15.737Z,8.20
2017-11-15T03:25:43.989Z,8.10
2017-11-15T03:28:12.254Z,8.10
2017-11-15T03:30:40.547Z,8.00
2017-11-15T03:33:08.810Z,8.00
2017-11-15T03:35:37.108Z,8.00
2017-11-15T03:38:05.373Z,8.00
2017-11-15T03:40:33.652Z,8.10
2017-11-15T03:43:01.905Z,8.20
2017-11-15T03:45:30.193Z,8.20
2017-11-15T03:47:58.454Z,8.20
2017-11-15T03:50:26.736Z,8.20
2017-11-15T03:52:54.990Z,8.10
2017-11-15T03:55:24.047Z,8.10
2017-11-15T03:57:52.316Z,8.10
2017-11-15T04:00:20.688Z,8.10
2017-11-15T04:02:48.957Z,8.20
2017-11-15T04:05:17.233Z,8.20
2017-11-15T04:07:45.494Z,8.10
2017-11-15T04:10:13.807Z,8.20
2017-11-15T04:12:42.065Z,8.20
2017-11-15T04:15:10.351Z,8.20
2017-11-15T04:17:38.603Z,8.20
2017-11-15T04:20:06.872Z,8.30
2017-11-15T04:22:35.126Z,8.10
2017-11-15T04:25:04.165Z,8.20
2017-11-15T04:27:32.457Z,8.20
2017-11-15T04:30:00.739Z,8.20
2017-11-15T04:32:29.003Z,8.10
2017-11-15T04:34:57.278Z,8.20
2017-11-15T04:37:25.547Z,8.30
2017-11-15T04:39:53.812Z,8.30
2017-11-15T04:42:22.073Z,8.20
2017-11-15T04:44:50.356Z,8.30
2017-11-15T04:47:18.622Z,8.30
2017-11-15T04:49:47.685Z,8.50
2017-11-15T04:52:15.937Z,8.50
2017-11-15T04:54:44.236Z,8.50
2017-11-15T04:57:12.517Z,8.50
2017-11-15T04:59:40.779Z,8.50
2017-11-15T05:02:09.064Z,8.40
2017-11-15T05:04:37.317Z,8.40
2017-11-15T05:07:05.609Z,8.30
2017-11-15T05:09:33.871Z,8.20
2017-11-15T05:12:02.148Z,8.10
2017-11-15T05:14:30.414Z,8.00
2017-11-15T05:16:58.694Z,7.90
2017-11-15T05:19:26.954Z,7.90
2017-11-15T05:21:55.250Z,8.00
2017-11-15T05:24:23.504Z,7.90
2017-11-15T05:26:51.780Z,8.00
2017-11-15T05:29:20.065Z,8.10
2017-11-15T05:31:48.351Z,8.00
2017-11-15T05:34:16.609Z,8.10
2017-11-15T05:36:44.938Z,8.20
2017-11-15T05:39:13.205Z,8.20
2017-11-15T05:41:41.473Z,8.20
2017-11-15T05:44:09.737Z,8.20
2017-11-15T05:46:38.041Z,8.20
2017-11-15T05:49:06.302Z,8.20
2017-11-15T05:51:34.705Z,8.20
2017-11-15T05:54:03.080Z,8.20
2017-11-15T05:56:31.364Z,8.20
2017-11-15T05:58:59.622Z,8.20
2017-11-15T06:01:27.911Z,8.10
2017-11-15T06:03:56.165Z,8.10
2017-11-15T06:06:24.456Z,8.00
2017-11-15T06:08:52.702Z,8.00
2017-11-15T06:11:21.018Z,8.10
2017-11-15T06:13:49.248Z,8.10
2017-11-15T06:16:17.690Z,8.10
2017-11-15T06:18:45.985Z,8.10
2017-11-15T06:21:14.431Z,8.00
2017-11-15T06:23:42.746Z,7.90
2017-11-15T06:26:12.592Z,7.90
2017-11-15T06:28:40.850Z,7.90
2017-11-15T06:31:09.921Z,7.80
2017-11-15T06:33:38.208Z,7.80
2017-11-15T06:36:06.440Z,7.70
2017-11-15T06:38:34.726Z,7.60
2017-11-15T06:41:02.990Z,7.60
2017-11-15T06:43:31.270Z,7.70
2017-11-15T06:45:59.572Z,7.60
2017-11-15T06:48:27.929Z,7.60
2017-11-15T06:50:56.204Z,7.60
2017-11-15T06:53:24.588Z,7.60
2017-11-15T06:55:52.841Z,7.70
2017-11-15T06:58:21.150Z,7.70
2017-11-15T07:00:49.398Z,7.70
2017-11-15T07:03:17.677Z,7.70
2017-11-15T07:05:45.941Z,7.80
2017-11-15T07:08:14.371Z,7.80
2017-11-15T07:10:42.634Z,7.80
2017-11-15T07:13:10.910Z,7.90
2017-11-15T07:15:39.178Z,7.90
2017-11-15T07:18:07.478Z,7.80
2017-11-15T07:20:35.747Z,7.80
2017-11-15T07:23:04.030Z,7.90
2017-11-15T07:25:32.289Z,7.90
2017-11-15T07:28:00.577Z,7.90
2017-11-15T07:30:28.924Z,7.90
2017-11-15T07:32:57.201Z,7.90
2017-11-15T07:35:25.489Z,7.80
2017-11-15T07:37:53.768Z,7.90
2017-11-15T07:40:22.026Z,7.90
2017-11-15T07:42:50.322Z,8.00
2017-11-15T07:45:18.577Z,8.00
2017-11-15T07:47:46.868Z,8.00
2017-11-15T07:50:15.125Z,8.10
2017-11-15T07:52:43.401Z,8.10
2017-11-15T07:55:11.665Z,8.20
2017-11-15T07:57:40.705Z,8.10
2017-11-15T08:00:08.969Z,8.10
2017-11-15T08:02:37.281Z,8.20
2017-11-15T08:05:05.665Z,8.20
2017-11-15T08:07:34.033Z,8.20
2017-11-15T08:10:02.285Z,8.30
2017-11-15T08:12:30.566Z,8.30
2017-11-15T08:14:58.918Z,8.40
2017-11-15T08:17:27.253Z,8.40
2017-11-15T08:19:57.045Z,8.30
2017-11-15T08:22:25.342Z,8.30
2017-11-15T08:24:53.610Z,8.30
2017-11-15T08:27:21.989Z,8.40
2017-11-15T08:29:50.241Z,8.50
2017-11-15T08:32:18.517Z,8.40
2017-11-15T08:34:46.820Z,8.40
2017-11-15T08:37:15.102Z,8.40
2017-11-15T08:39:43.480Z,8.40
2017-11-15T08:42:11.741Z,8.60
2017-11-15T08:44:40.030Z,8.70
2017-11-15T08:47:08.302Z,8.70
2017-11-15T08:49:36.587Z,8.80
2017-11-15T08:52:04.841Z,8.90
2017-11-15T08:54:33.117Z,8.90
2017-11-15T08:57:01.723Z,8.80
2017-11-15T08:59:30.810Z,9.00
2017-11-15T09:01:59.096Z,9.00
2017-11-15T09:04:28.890Z,9.00
2017-11-15T09:06:57.185Z,9.00
2017-11-15T09:09:25.554Z,9.20
2017-11-15T09:11:53.837Z,9.20
2017-11-15T09:14:22.114Z,9.20
2017-11-15T09:16:50.383Z,9.20
2017-11-15T09:19:18.778Z,9.10
2017-11-15T09:21:47.040Z,9.10
2017-11-15T09:24:15.316Z,9.00
2017-11-15T09:26:43.577Z,9.00
2017-11-15T09:29:11.882Z,9.00
2017-11-15T09:31:40.140Z,9.10
2017-11-15T09:34:08.417Z,9.20
2017-11-15T09:36:36.674Z,9.30
2017-11-15T09:39:04.958Z,9.30
2017-11-15T09:41:33.209Z,9.40
2017-11-15T09:44:02.257Z,9.40
2017-11-15T09:46:30.536Z,9.40
2017-11-15T09:48:58.817Z,9.30
2017-11-15T09:51:27.085Z,9.30
2017-11-15T09:53:55.476Z,9.30
2017-11-15T09:56:23.750Z,9.20
2017-11-15T09:58:52.050Z,9.10
2017-11-15T10:01:21.805Z,9.10
2017-11-15T10:03:50.090Z,9.10
2017-11-15T10:06:18.352Z,9.10
2017-11-15T10:08:46.626Z,9.10
2017-11-15T10:11:14.944Z,9.00
2017-11-15T10:13:43.215Z,9.00
2017-11-15T10:16:11.473Z,9.10
2017-11-15T10:18:39.749Z,9.20
2017-11-15T10:21:08.074Z,9.40
2017-11-15T10:23:36.425Z,9.40
2017-11-15T10:26:04.688Z,9.50
2017-11-15T10:28:33.005Z,9.50
2017-11-15T10:31:01.268Z,9.50
2017-11-15T10:33:29.544Z,9.60
2017-11-15T10:35:57.806Z,9.70
2017-11-15T10:38:26.100Z,9.60
2017-11-15T10:40:54.350Z,9.60
2017-11-15T10:43:22.629Z,9.60
2017-11-15T10:45:50.941Z,9.40
2017-11-15T10:48:19.213Z,9.50
2017-11-15T10:50:47.468Z,9.50
2017-11-15T10:53:15.747Z,9.40
2017-11-15T10:55:44.005Z,9.40
2017-11-15T10:58:12.276Z,9.40
2017-11-15T11:00:40.552Z,9.30
2017-11-15T11:03:08.812Z,9.30
2017-11-15T11:05:37.107Z,9.30
2017-11-15T11:08:05.422Z,9.20
2017-11-15T11:10:33.700Z,9.20
2017-11-15T11:13:01.964Z,9.20
2017-11-15T11:15:30.247Z,9.20
2017-11-15T11:17:58.505Z,9.20
2017-11-15T11:20:26.789Z,9.30
2017-11-15T11:22:55.044Z,9.50
2017-11-15T11:25:23.317Z,9.50
2017-11-15T11:27:51.591Z,9.50
2017-11-15T11:30:19.877Z,9.50
2017-11-15T11:32:48.133Z,9.40
2017-11-15T11:35:18.098Z,9.40
2017-11-15T11:37:46.355Z,9.40
2017-11-15T11:40:14.643Z,9.40
2017-11-15T11:42:43.041Z,9.30
2017-11-15T11:45:11.297Z,9.40
2017-11-15T11:47:39.569Z,9.50
2017-11-15T11:50:07.876Z,9.50
2017-11-15T11:52:36.125Z,9.40
2017-11-15T11:55:04.417Z,9.50
2017-11-15T11:57:32.693Z,9.50
2017-11-15T12:00:01.007Z,9.40
2017-11-15T12:02:29.250Z,9.60
2017-11-15T12:04:57.527Z,9.70
2017-11-15T12:07:25.794Z,9.70
2017-11-15T12:09:54.070Z,9.70
2017-11-15T12:12:22.328Z,9.60
2017-11-15T12:14:50.602Z,9.60
2017-11-15T12:17:18.862Z,9.60
2017-11-15T12:19:47.893Z,9.70
2017-11-15T12:22:16.141Z,9.70
2017-11-15T12:24:44.409Z,9.80
2017-11-15T12:27:13.425Z,9.80
2017-11-15T12:29:41.697Z,9.80
2017-11-15T12:32:09.954Z,9.80
2017-11-15T12:34:39.273Z,9.90
2017-11-15T12:37:07.517Z,9.90
2017-11-15T12:39:35.863Z,9.90
2017-11-15T12:42:05.183Z,9.80
2017-11-15T12:44:34.225Z,9.80
2017-11-15T12:47:02.540Z,9.80
2017-11-15T12:49:30.830Z,9.90
2017-11-15T12:52:00.595Z,9.90
2017-11-15T12:54:28.850Z,9.90
2017-11-15T12:56:58.025Z,10.00
2017-11-15T12:59:26.284Z,10.00
2017-11-15T13:01:54.569Z,10.10
2017-11-15T13:04:23.589Z,10.10
2017-11-15T13:06:52.664Z,10.10
2017-11-15T13:09:21.798Z,10.10
2017-11-15T13:11:50.073Z,10.10
2017-11-15T13:14:18.397Z,10.10
2017-11-15T13:16:46.669Z,10.10
2017-11-15T13:19:14.934Z,10.10
2017-11-15T13:21:43.221Z,10.00
2017-11-15T13:24:11.476Z,10.00
2017-11-15T13:26:39.761Z,10.10
2017-11-15T13:29:08.021Z,10.10
2017-11-15T13:31:36.308Z,10.10
2017-11-15T13:34:04.563Z,9.90
2017-11-15T13:36:32.875Z,9.90
2017-11-15T13:39:01.139Z,9.90
2017-11-15T13:41:29.526Z,9.80
2017-11-15T13:43:57.770Z,9.80
2017-11-15T13:46:26.046Z,9.90
2017-11-15T13:48:54.309Z,9.80
2017-11-15T13:51:22.589Z,9.80
2017-11-15T13:53:50.896Z,9.70
2017-11-15T13:56:19.166Z,9.70
2017-11-15T13:58:47.422Z,9.70
2017-11-15T14:01:15.689Z,9.60
2017-11-15T14:03:43.953Z,9.60
2017-11-15T14:06:13.611Z,9.60
2017-11-15T14:08:42.001Z,9.60
2017-11-15T14:11:10.242Z,9.60
2017-11-15T14:13:38.517Z,9.70
2017-11-15T14:16:06.773Z,9.80
2017-11-15T14:18:35.823Z,9.90
2017-11-15T14:21:04.081Z,9.90
2017-11-15T14:23:32.353Z,9.90
2017-11-15T14:26:00.606Z,9.90
2017-11-15T14:28:28.883Z,9.90
2017-11-15T14:30:57.207Z,9.90
2017-11-15T14:33:25.486Z,9.80
2017-11-15T14:35:53.752Z,9.80
2017-11-15T14:38:22.414Z,9.80
2017-11-15T14:40:50.652Z,9.70
2017-11-15T14:43:18.938Z,9.80
2017-11-15T14:45:47.954Z,9.80
2017-11-15T14:48:16.267Z,9.80
2017-11-15T14:50:44.521Z,9.80
2017-11-15T14:53:12.797Z,9.90
2017-11-15T14:55:41.053Z,9.80
2017-11-15T14:58:10.192Z,9.90
2017-11-15T15:00:38.486Z,9.90
2017-11-15T15:03:06.852Z,9.90
2017-11-15T15:05:35.127Z,9.90
2017-11-15T15:08:03.402Z,9.90
2017-11-15T15:10:31.653Z,9.80
2017-11-15T15:12:59.951Z,9.90
2017-11-15T15:15:28.197Z,9.90
2017-11-15T15:17:56.469Z,9.90
2017-11-15T15:20:24.731Z,9.80
2017-11-15T15:22:53.774Z,9.80
2017-11-15T15:25:22.793Z,9.60
2017-11-15T15:27:51.069Z,9.60
2017-11-15T15:30:19.390Z,9.70
2017-11-15T15:32:47.673Z,9.80
2017-11-15T15:35:15.929Z,9.80
2017-11-15T15:37:44.229Z,9.80
2017-11-15T15:40:12.482Z,9.90
2017-11-15T15:42:40.751Z,9.80
2017-11-15T15:45:09.056Z,9.80
2017-11-15T15:47:37.322Z,9.60
2017-11-15T15:50:05.579Z,9.70
2017-11-15T15:52:33.886Z,9.70
2017-11-15T15:55:02.133Z,9.80
2017-11-15T15:57:30.389Z,9.80
2017-11-15T15:59:58.699Z,9.90
2017-11-15T16:02:26.941Z,9.90
2017-11-15T16:04:56.086Z,9.70
2017-11-15T16:07:24.341Z,9.70
2017-11-15T16:09:52.650Z,9.70
2017-11-15T16:12:21.661Z,9.60
2017-11-15T16:14:49.934Z,9.60
2017-11-15T16:17:18.194Z,9.60
2017-11-15T16:19:47.257Z,9.60
2017-11-15T16:22:15.524Z,9.60
2017-11-15T16:24:43.829Z,9.60
2017-11-15T16:27:12.177Z,9.50
2017-11-15T16:29:40.467Z,9.50
2017-11-15T16:32:08.728Z,9.50
2017-11-15T16:34:37.017Z,9.50
2017-11-15T16:37:05.284Z,9.40
2017-11-15T16:39:33.666Z,9.50
2017-11-15T16:42:02.251Z,9.50
2017-11-15T16:44:31.324Z,9.40
2017-11-15T16:46:59.588Z,9.40
2017-11-15T16:49:27.870Z,9.40
2017-11-15T16:51:56.130Z,9.40
2017-11-15T16:54:24.410Z,9.50
2017-11-15T16:56:52.677Z,9.50
2017-11-15T16:59:21.009Z,9.60
2017-11-15T17:01:49.266Z,9.60
2017-11-15T17:04:17.558Z,9.60
2017-11-15T17:06:45.862Z,9.70
2017-11-15T17:09:14.139Z,9.70
2017-11-15T17:11:42.409Z,9.70
2017-11-15T17:14:11.476Z,9.70
2017-11-15T17:16:39.762Z,9.70
2017-11-15T17:19:08.021Z,9.60
2017-11-15T17:21:36.301Z,9.70
2017-11-15T17:24:04.566Z,9.70
2017-11-15T17:26:32.850Z,9.80
2017-11-15T17:29:01.145Z,9.70
2017-11-15T17:31:29.420Z,9.70
2017-11-15T17:33:57.680Z,9.70
2017-11-15T17:36:25.960Z,9.60
2017-11-15T17:38:54.255Z,9.60
2017-11-15T17:41:22.637Z,9.60
2017-11-15T17:43:50.892Z,9.60
2017-11-15T17:46:19.187Z,9.60
2017-11-15T17:48:47.453Z,9.60
2017-11-15T17:51:16.156Z,9.60
2017-11-15T17:53:44.446Z,9.60
2017-11-15T17:56:12.814Z,9.60
2017-11-15T17:58:41.074Z,9.60
2017-11-15T18:01:09.369Z,9.50
2017-11-15T18:03:37.613Z,9.50
2017-11-15T18:06:05.891Z,9.50
2017-11-15T18:08:34.160Z,9.60
2017-11-15T18:11:02.440Z,9.70
2017-11-15T18:13:30.722Z,9.70
2017-11-15T18:15:58.998Z,9.80
2017-11-15T18:18:27.255Z,9.80
2017-11-15T18:20:55.533Z,9.70
2017-11-15T18:23:23.810Z,9.70
2017-11-15T18:25:52.093Z,9.80
2017-11-15T18:28:20.361Z,9.90
2017-11-15T18:30:48.643Z,9.80
2017-11-15T18:33:16.924Z,9.80
2017-11-15T18:35:45.212Z,9.80
2017-11-15T18:38:13.487Z,9.80
2017-11-15T18:40:41.762Z,9.70
2017-11-15T18:43:10.036Z,9.60
2017-11-15T18:45:38.296Z,9.70
2017-11-15T18:48:06.585Z,9.60
2017-11-15T18:50:34.866Z,9.60
2017-11-15T18:53:03.121Z,9.60
2017-11-15T18:55:31.393Z,9.60
2017-11-15T18:57:59.650Z,9.70
2017-11-15T19:00:27.941Z,9.80
2017-11-15T19:02:56.253Z,9.80
2017-11-15T19:05:24.513Z,9.80
2017-11-15T19:07:52.793Z,9.80
2017-11-15T19:10:21.214Z,9.80
2017-11-15T19:12:49.501Z,9.80
2017-11-15T19:15:18.585Z,9.90
2017-11-15T19:17:46.864Z,9.90
2017-11-15T19:20:15.931Z,9.80
2017-11-15T19:22:44.198Z,9.80
2017-11-15T19:25:12.461Z,9.80
2017-11-15T19:27:40.740Z,9.90
2017-11-15T19:30:08.989Z,9.90
2017-11-15T19:32:38.066Z,9.90
2017-11-15T19:35:07.096Z,9.90
2017-11-15T19:37:35.407Z,9.90
2017-11-15T19:40:03.665Z,9.90
2017-11-15T19:42:31.950Z,9.90
2017-11-15T19:45:00.231Z,9.90
2017-11-15T19:47:28.493Z,9.90
2017-11-15T19:49:56.758Z,10.00
2017-11-15T19:52:25.049Z,10.10
2017-11-15T19:54:53.309Z,10.00
2017-11-15T19:57:21.626Z,10.00
2017-11-15T19:59:49.890Z,10.00
2017-11-15T20:02:18.185Z,10.00
2017-11-15T20:04:47.155Z,10.00
2017-11-15T20:07:15.437Z,9.90
2017-11-15T20:09:43.701Z,9.80
2017-11-15T20:12:12.027Z,9.90
2017-11-15T20:14:40.281Z,9.90
2017-11-15T20:17:08.545Z,9.90
2017-11-15T20:19:36.823Z,9.90
2017-11-15T20:22:05.093Z,9.90
2017-11-15T20:24:33.369Z,9.90
2017-11-15T20:27:01.629Z,10.00
2017-11-15T20:29:29.928Z,9.80
2017-11-15T20:31:58.188Z,9.90
2017-11-15T20:34:26.468Z,9.90
2017-11-15T20:36:54.725Z,9.90
2017-11-15T20:39:23.008Z,9.90
2017-11-15T20:41:51.277Z,9.90
2017-11-15T20:44:19.561Z,10.00
2017-11-15T20:46:47.822Z,9.90
2017-11-15T20:49:16.885Z,10.00
2017-11-15T20:51:45.149Z,10.00
2017-11-15T20:54:13.433Z,10.10
2017-11-15T20:56:42.334Z,10.10
2017-11-15T20:59:10.697Z,10.10
2017-11-15T21:01:38.962Z,10.00
2017-11-15T21:04:07.252Z,10.00
2017-11-15T21:06:35.534Z,10.10
2017-11-15T21:09:03.820Z,10.00
2017-11-15T21:11:32.086Z,10.00
2017-11-15T21:14:00.386Z,10.00
2017-11-15T21:16:29.423Z,10.10
2017-11-15T21:18:57.737Z,10.10
2017-11-15T21:21:26.001Z,10.20
2017-11-15T21:23:54.389Z,10.20
2017-11-15T21:26:22.648Z,10.30
2017-11-15T21:28:50.938Z,10.40
2017-11-15T21:31:19.216Z,10.30
2017-11-15T21:33:47.504Z,10.20
2017-11-15T21:36:15.764Z,10.20
2017-11-15T21:38:44.056Z,10.20
2017-11-15T21:41:12.437Z,10.20
2017-11-15T21:43:40.730Z,10.20
2017-11-15T21:46:08.993Z,10.20
2017-11-15T21:48:38.046Z,10.20
2017-11-15T21:51:06.348Z,10.20
2017-11-15T21:53:34.634Z,10.30
2017-11-15T21:56:03.031Z,10.30
2017-11-15T21:58:31.391Z,10.40
2017-11-15T22:00:59.653Z,10.30
2017-11-15T22:03:28.155Z,10.30
2017-11-15T22:05:56.433Z,10.40
2017-11-15T22:08:24.744Z,10.20
2017-11-15T22:10:53.771Z,10.30
2017-11-15T22:13:22.056Z,10.30
2017-11-15T22:15:50.357Z,10.40
2017-11-15T22:18:18.839Z,10.40
2017-11-15T22:20:47.218Z,10.40
2017-11-15T22:23:15.599Z,10.40
2017-11-15T22:25:43.877Z,10.40
2017-11-15T22:28:12.144Z,10.40
2017-11-15T22:30:40.438Z,10.40
2017-11-15T22:33:08.696Z,10.40
2017-11-15T22:35:36.997Z,10.40
2017-11-15T22:38:05.248Z,10.40
2017-11-15T22:40:33.637Z,10.40
2017-11-15T22:43:02.038Z,10.40
2017-11-15T22:45:30.323Z,10.50
2017-11-15T22:47:59.353Z,10.60
2017-11-15T22:50:27.636Z,10.60
2017-11-15T22:52:55.905Z,10.70
2017-11-15T22:55:24.195Z,10.70
2017-11-15T22:57:52.497Z,10.90
2017-11-15T23:00:20.777Z,10.90
2017-11-15T23:02:49.261Z,10.90
2017-11-15T23:05:18.540Z,10.90
2017-11-15T23:07:46.798Z,10.90
2017-11-15T23:10:15.108Z,10.90
2017-11-15T23:12:43.383Z,10.80
2017-11-15T23:15:11.661Z,10.80
2017-11-15T23:17:39.936Z,10.80
2017-11-15T23:20:08.250Z,10.90
2017-11-15T23:22:37.280Z,10.90
2017-11-15T23:25:05.544Z,10.90
2017-11-15T23:27:33.855Z,11.10
2017-11-15T23:30:02.150Z,11.10
2017-11-15T23:32:30.424Z,11.20
2017-11-15T23:34:58.702Z,11.10
2017-11-15T23:37:27.077Z,11.10
2017-11-15T23:39:55.344Z,11.10
2017-11-15T23:42:23.634Z,11.10
2017-11-15T23:44:51.894Z,11.10
2017-11-15T23:47:20.186Z,11.00
2017-11-15T23:49:48.456Z,11.00
2017-11-15T23:52:16.745Z,11.10
2017-11-15T23:54:45.045Z,11.20
2017-11-15T23:57:14.128Z,11.30
2017-11-15T23:59:42.392Z,11.30
